sensor_id;sensor_type;location;lat;lon;timestamp;pressure;altitude;pressure_sealevel;temperature;humidity
70488;BME280;57976;48.174;16.370;2023-02-14T00:01:23;101249.40;;;5.89;72.94
70488;BME280;57976;48.174;16.370;2023-02-14T00:03:26;101246.50;;;5.90;73.13
70488;BME280;57976;48.174;16.370;2023-02-14T00:05:31;101245.54;;;5.87;73.13
70488;BME280;57976;48.174;16.370;2023-02-14T00:07:35;101247.96;;;5.85;73.34
70488;BME280;57976;48.174;16.370;2023-02-14T00:09:37;101245.05;;;5.82;73.16
70488;BME280;57976;48.174;16.370;2023-02-14T00:11:44;101242.68;;;5.78;73.13
70488;BME280;57976;48.174;16.370;2023-02-14T00:13:47;101243.75;;;5.76;73.40
70488;BME280;57976;48.174;16.370;2023-02-14T00:15:50;101244.94;;;5.74;73.83
70488;BME280;57976;48.174;16.370;2023-02-14T00:17:55;101241.49;;;5.73;73.87
70488;BME280;57976;48.174;16.370;2023-02-14T00:19:59;101236.90;;;5.76;74.04
70488;BME280;57976;48.174;16.370;2023-02-14T00:22:01;101240.04;;;5.78;74.01
70488;BME280;57976;48.174;16.370;2023-02-14T00:24:06;101241.86;;;5.80;74.28
70488;BME280;57976;48.174;16.370;2023-02-14T00:26:14;101238.39;;;5.75;74.22
70488;BME280;57976;48.174;16.370;2023-02-14T00:28:17;101237.38;;;5.74;74.63
70488;BME280;57976;48.174;16.370;2023-02-14T00:30:20;101245.05;;;5.73;75.01
70488;BME280;57976;48.174;16.370;2023-02-14T00:32:24;101240.98;;;5.71;74.93
70488;BME280;57976;48.174;16.370;2023-02-14T00:34:29;101247.30;;;5.69;75.65
70488;BME280;57976;48.174;16.370;2023-02-14T00:36:32;101249.29;;;5.66;76.13
70488;BME280;57976;48.174;16.370;2023-02-14T00:38:35;101246.23;;;5.65;76.19
70488;BME280;57976;48.174;16.370;2023-02-14T00:40:38;101246.42;;;5.63;76.82
70488;BME280;57976;48.174;16.370;2023-02-14T00:42:40;101243.38;;;5.61;77.07
70488;BME280;57976;48.174;16.370;2023-02-14T00:44:43;101248.31;;;5.61;77.29
70488;BME280;57976;48.174;16.370;2023-02-14T00:46:46;101245.88;;;5.60;77.83
70488;BME280;57976;48.174;16.370;2023-02-14T00:48:49;101245.12;;;5.59;77.94
70488;BME280;57976;48.174;16.370;2023-02-14T00:50:52;101242.42;;;5.57;77.74
70488;BME280;57976;48.174;16.370;2023-02-14T00:52:55;101240.77;;;5.56;78.06
70488;BME280;57976;48.174;16.370;2023-02-14T00:54:59;101239.77;;;5.56;78.41
70488;BME280;57976;48.174;16.370;2023-02-14T00:57:02;101237.27;;;5.56;78.20
70488;BME280;57976;48.174;16.370;2023-02-14T00:59:07;101238.06;;;5.57;78.37
70488;BME280;57976;48.174;16.370;2023-02-14T01:01:10;101240.27;;;5.56;78.64
70488;BME280;57976;48.174;16.370;2023-02-14T01:03:16;101244.10;;;5.56;78.66
70488;BME280;57976;48.174;16.370;2023-02-14T01:05:19;101236.70;;;5.54;79.34
70488;BME280;57976;48.174;16.370;2023-02-14T01:07:28;101238.95;;;5.55;79.02
70488;BME280;57976;48.174;16.370;2023-02-14T01:09:31;101238.70;;;5.56;79.28
70488;BME280;57976;48.174;16.370;2023-02-14T01:11:37;101235.00;;;5.53;78.98
70488;BME280;57976;48.174;16.370;2023-02-14T01:13:41;101235.58;;;5.55;79.17
70488;BME280;57976;48.174;16.370;2023-02-14T01:15:45;101233.95;;;5.56;79.06
70488;BME280;57976;48.174;16.370;2023-02-14T01:17:51;101236.02;;;5.58;78.89
70488;BME280;57976;48.174;16.370;2023-02-14T01:19:56;101234.41;;;5.56;79.26
70488;BME280;57976;48.174;16.370;2023-02-14T01:22:00;101232.05;;;5.55;79.65
70488;BME280;57976;48.174;16.370;2023-02-14T01:24:05;101234.31;;;5.56;79.33
70488;BME280;57976;48.174;16.370;2023-02-14T01:26:09;101229.55;;;5.55;79.15
70488;BME280;57976;48.174;16.370;2023-02-14T01:28:12;101224.89;;;5.57;79.34
70488;BME280;57976;48.174;16.370;2023-02-14T01:30:17;101226.06;;;5.55;79.40
70488;BME280;57976;48.174;16.370;2023-02-14T01:32:20;101221.36;;;5.52;79.69
70488;BME280;57976;48.174;16.370;2023-02-14T01:34:22;101217.95;;;5.53;79.89
70488;BME280;57976;48.174;16.370;2023-02-14T01:36:26;101220.47;;;5.52;79.71
70488;BME280;57976;48.174;16.370;2023-02-14T01:38:31;101215.77;;;5.49;79.83
70488;BME280;57976;48.174;16.370;2023-02-14T01:40:33;101215.48;;;5.49;79.72
70488;BME280;57976;48.174;16.370;2023-02-14T01:42:39;101219.22;;;5.48;79.96
70488;BME280;57976;48.174;16.370;2023-02-14T01:44:57;101215.21;;;5.48;79.86
70488;BME280;57976;48.174;16.370;2023-02-14T01:47:03;101215.41;;;5.49;79.95
70488;BME280;57976;48.174;16.370;2023-02-14T01:49:09;101213.00;;;5.51;79.99
70488;BME280;57976;48.174;16.370;2023-02-14T01:51:14;101208.84;;;5.52;79.89
70488;BME280;57976;48.174;16.370;2023-02-14T01:53:22;101208.20;;;5.54;80.07
70488;BME280;57976;48.174;16.370;2023-02-14T01:55:29;101205.56;;;5.54;79.86
70488;BME280;57976;48.174;16.370;2023-02-14T01:57:39;101195.38;;;5.53;79.92
70488;BME280;57976;48.174;16.370;2023-02-14T01:59:50;101194.45;;;5.52;80.14
70488;BME280;57976;48.174;16.370;2023-02-14T02:01:55;101186.07;;;5.51;79.58
70488;BME280;57976;48.174;16.370;2023-02-14T02:04:01;101191.53;;;5.48;79.84
70488;BME280;57976;48.174;16.370;2023-02-14T02:06:10;101190.23;;;5.47;80.05
70488;BME280;57976;48.174;16.370;2023-02-14T02:08:15;101188.13;;;5.45;80.49
70488;BME280;57976;48.174;16.370;2023-02-14T02:10:19;101194.89;;;5.48;80.42
70488;BME280;57976;48.174;16.370;2023-02-14T02:12:24;101191.97;;;5.50;80.29
70488;BME280;57976;48.174;16.370;2023-02-14T02:14:28;101195.01;;;5.51;80.26
70488;BME280;57976;48.174;16.370;2023-02-14T02:16:41;101191.23;;;5.52;79.96
70488;BME280;57976;48.174;16.370;2023-02-14T02:18:57;101190.45;;;5.55;80.00
70488;BME280;57976;48.174;16.370;2023-02-14T02:21:21;101183.89;;;5.56;80.04
70488;BME280;57976;48.174;16.370;2023-02-14T02:23:56;101184.58;;;5.58;79.98
70488;BME280;57976;48.174;16.370;2023-02-14T02:26:33;101181.55;;;5.58;79.81
70488;BME280;57976;48.174;16.370;2023-02-14T02:29:03;101183.63;;;5.57;79.85
70488;BME280;57976;48.174;16.370;2023-02-14T02:31:40;101185.07;;;5.56;80.45
70488;BME280;57976;48.174;16.370;2023-02-14T02:34:14;101184.30;;;5.55;80.52
70488;BME280;57976;48.174;16.370;2023-02-14T02:36:35;101188.95;;;5.52;80.30
70488;BME280;57976;48.174;16.370;2023-02-14T02:38:54;101181.50;;;5.48;80.34
70488;BME280;57976;48.174;16.370;2023-02-14T02:41:07;101178.66;;;5.46;80.46
70488;BME280;57976;48.174;16.370;2023-02-14T02:43:24;101177.11;;;5.46;80.47
70488;BME280;57976;48.174;16.370;2023-02-14T02:45:37;101178.82;;;5.47;80.85
70488;BME280;57976;48.174;16.370;2023-02-14T02:47:45;101174.46;;;5.46;80.90
70488;BME280;57976;48.174;16.370;2023-02-14T02:49:57;101172.69;;;5.46;80.73
70488;BME280;57976;48.174;16.370;2023-02-14T02:52:06;101173.19;;;5.49;80.82
70488;BME280;57976;48.174;16.370;2023-02-14T02:54:15;101173.59;;;5.50;80.42
70488;BME280;57976;48.174;16.370;2023-02-14T02:56:24;101173.42;;;5.52;80.39
70488;BME280;57976;48.174;16.370;2023-02-14T02:58:34;101172.98;;;5.53;80.37
70488;BME280;57976;48.174;16.370;2023-02-14T03:00:38;101168.38;;;5.54;80.35
70488;BME280;57976;48.174;16.370;2023-02-14T03:02:43;101174.29;;;5.55;80.32
70488;BME280;57976;48.174;16.370;2023-02-14T03:04:51;101170.75;;;5.53;80.33
70488;BME280;57976;48.174;16.370;2023-02-14T03:06:56;101172.80;;;5.51;80.36
70488;BME280;57976;48.174;16.370;2023-02-14T03:09:11;101175.17;;;5.52;80.43
70488;BME280;57976;48.174;16.370;2023-02-14T03:11:14;101169.73;;;5.52;80.39
70488;BME280;57976;48.174;16.370;2023-02-14T03:13:48;101163.95;;;5.52;80.40
70488;BME280;57976;48.174;16.370;2023-02-14T03:16:02;101160.29;;;5.51;80.30
70488;BME280;57976;48.174;16.370;2023-02-14T03:18:18;101161.78;;;5.51;80.50
70488;BME280;57976;48.174;16.370;2023-02-14T03:20:36;101159.30;;;5.50;80.43
70488;BME280;57976;48.174;16.370;2023-02-14T03:22:53;101159.50;;;5.50;80.41
70488;BME280;57976;48.174;16.370;2023-02-14T03:25:05;101155.11;;;5.50;80.45
70488;BME280;57976;48.174;16.370;2023-02-14T03:27:17;101155.13;;;5.50;80.34
70488;BME280;57976;48.174;16.370;2023-02-14T03:29:25;101155.15;;;5.52;80.68
70488;BME280;57976;48.174;16.370;2023-02-14T03:31:34;101150.40;;;5.52;80.31
70488;BME280;57976;48.174;16.370;2023-02-14T03:33:49;101150.64;;;5.51;80.31
70488;BME280;57976;48.174;16.370;2023-02-14T03:35:57;101150.05;;;5.52;80.72
70488;BME280;57976;48.174;16.370;2023-02-14T03:38:06;101151.52;;;5.53;80.58
70488;BME280;57976;48.174;16.370;2023-02-14T03:40:16;101150.42;;;5.53;80.57
70488;BME280;57976;48.174;16.370;2023-02-14T03:42:25;101151.64;;;5.53;79.89
70488;BME280;57976;48.174;16.370;2023-02-14T03:44:31;101153.30;;;5.55;80.20
70488;BME280;57976;48.174;16.370;2023-02-14T03:46:39;101152.36;;;5.56;80.20
70488;BME280;57976;48.174;16.370;2023-02-14T03:48:47;101150.96;;;5.58;80.32
70488;BME280;57976;48.174;16.370;2023-02-14T03:50:53;101149.89;;;5.60;80.22
70488;BME280;57976;48.174;16.370;2023-02-14T03:52:57;101152.69;;;5.60;80.06
70488;BME280;57976;48.174;16.370;2023-02-14T03:55:03;101148.14;;;5.62;80.06
70488;BME280;57976;48.174;16.370;2023-02-14T03:57:15;101145.15;;;5.64;79.94
70488;BME280;57976;48.174;16.370;2023-02-14T03:59:23;101146.30;;;5.65;80.15
70488;BME280;57976;48.174;16.370;2023-02-14T04:01:29;101142.84;;;5.64;80.11
70488;BME280;57976;48.174;16.370;2023-02-14T04:03:37;101146.95;;;5.65;79.94
70488;BME280;57976;48.174;16.370;2023-02-14T04:05:46;101146.16;;;5.67;80.00
70488;BME280;57976;48.174;16.370;2023-02-14T04:07:51;101146.56;;;5.66;80.17
70488;BME280;57976;48.174;16.370;2023-02-14T04:09:57;101140.02;;;5.66;80.10
70488;BME280;57976;48.174;16.370;2023-02-14T04:12:00;101137.90;;;5.66;80.16
70488;BME280;57976;48.174;16.370;2023-02-14T04:14:03;101135.77;;;5.66;80.28
70488;BME280;57976;48.174;16.370;2023-02-14T04:16:07;101140.59;;;5.66;80.33
70488;BME280;57976;48.174;16.370;2023-02-14T04:18:10;101138.26;;;5.64;80.28
70488;BME280;57976;48.174;16.370;2023-02-14T04:20:13;101141.40;;;5.64;80.53
70488;BME280;57976;48.174;16.370;2023-02-14T04:22:16;101137.03;;;5.64;80.58
70488;BME280;57976;48.174;16.370;2023-02-14T04:24:20;101136.53;;;5.64;80.48
70488;BME280;57976;48.174;16.370;2023-02-14T04:26:23;101135.45;;;5.64;80.62
70488;BME280;57976;48.174;16.370;2023-02-14T04:28:25;101134.41;;;5.64;80.77
70488;BME280;57976;48.174;16.370;2023-02-14T04:30:31;101138.42;;;5.64;81.00
70488;BME280;57976;48.174;16.370;2023-02-14T04:32:34;101132.83;;;5.64;80.93
70488;BME280;57976;48.174;16.370;2023-02-14T04:34:40;101130.54;;;5.64;80.79
70488;BME280;57976;48.174;16.370;2023-02-14T04:36:43;101133.67;;;5.64;81.15
70488;BME280;57976;48.174;16.370;2023-02-14T04:38:45;101131.81;;;5.65;80.85
70488;BME280;57976;48.174;16.370;2023-02-14T04:40:49;101131.20;;;5.66;80.73
70488;BME280;57976;48.174;16.370;2023-02-14T04:42:52;101123.34;;;5.67;80.85
70488;BME280;57976;48.174;16.370;2023-02-14T04:44:54;101124.09;;;5.67;80.69
70488;BME280;57976;48.174;16.370;2023-02-14T04:46:57;101130.20;;;5.68;80.54
70488;BME280;57976;48.174;16.370;2023-02-14T04:49:00;101125.84;;;5.69;80.69
70488;BME280;57976;48.174;16.370;2023-02-14T04:51:03;101127.52;;;5.70;80.30
70488;BME280;57976;48.174;16.370;2023-02-14T04:53:06;101121.51;;;5.71;80.43
70488;BME280;57976;48.174;16.370;2023-02-14T04:55:09;101121.44;;;5.71;80.32
70488;BME280;57976;48.174;16.370;2023-02-14T04:57:12;101126.42;;;5.73;80.18
70488;BME280;57976;48.174;16.370;2023-02-14T04:59:15;101124.64;;;5.73;80.15
70488;BME280;57976;48.174;16.370;2023-02-14T05:01:18;101127.17;;;5.75;80.01
70488;BME280;57976;48.174;16.370;2023-02-14T05:03:21;101133.92;;;5.74;79.96
70488;BME280;57976;48.174;16.370;2023-02-14T05:05:24;101132.33;;;5.74;79.93
70488;BME280;57976;48.174;16.370;2023-02-14T05:07:27;101131.66;;;5.73;80.03
70488;BME280;57976;48.174;16.370;2023-02-14T05:09:29;101134.42;;;5.74;79.92
70488;BME280;57976;48.174;16.370;2023-02-14T05:11:32;101131.98;;;5.74;79.51
70488;BME280;57976;48.174;16.370;2023-02-14T05:13:35;101125.27;;;5.74;79.55
70488;BME280;57976;48.174;16.370;2023-02-14T05:15:38;101128.02;;;5.75;79.34
70488;BME280;57976;48.174;16.370;2023-02-14T05:17:41;101129.24;;;5.77;79.35
70488;BME280;57976;48.174;16.370;2023-02-14T05:19:43;101131.45;;;5.78;79.07
70488;BME280;57976;48.174;16.370;2023-02-14T05:21:46;101130.20;;;5.80;78.87
70488;BME280;57976;48.174;16.370;2023-02-14T05:23:49;101129.52;;;5.82;79.00
70488;BME280;57976;48.174;16.370;2023-02-14T05:25:52;101137.05;;;5.83;78.67
70488;BME280;57976;48.174;16.370;2023-02-14T05:27:55;101134.56;;;5.85;78.62
70488;BME280;57976;48.174;16.370;2023-02-14T05:29:57;101125.86;;;5.84;79.06
70488;BME280;57976;48.174;16.370;2023-02-14T05:32:00;101125.30;;;5.84;78.72
70488;BME280;57976;48.174;16.370;2023-02-14T05:34:05;101125.04;;;5.85;78.59
70488;BME280;57976;48.174;16.370;2023-02-14T05:36:08;101123.98;;;5.86;78.65
70488;BME280;57976;48.174;16.370;2023-02-14T05:38:11;101124.45;;;5.88;78.45
70488;BME280;57976;48.174;16.370;2023-02-14T05:40:14;101122.02;;;5.90;78.12
70488;BME280;57976;48.174;16.370;2023-02-14T05:42:17;101120.48;;;5.92;78.09
70488;BME280;57976;48.174;16.370;2023-02-14T05:44:20;101123.17;;;5.93;77.79
70488;BME280;57976;48.174;16.370;2023-02-14T05:46:23;101123.48;;;5.93;77.64
70488;BME280;57976;48.174;16.370;2023-02-14T05:48:25;101117.54;;;5.95;77.91
70488;BME280;57976;48.174;16.370;2023-02-14T05:50:28;101120.90;;;5.97;77.60
70488;BME280;57976;48.174;16.370;2023-02-14T05:52:33;101114.59;;;5.99;77.64
70488;BME280;57976;48.174;16.370;2023-02-14T05:54:36;101114.83;;;6.00;77.56
70488;BME280;57976;48.174;16.370;2023-02-14T05:56:39;101119.88;;;6.05;77.61
70488;BME280;57976;48.174;16.370;2023-02-14T05:58:42;101121.11;;;6.10;77.68
70488;BME280;57976;48.174;16.370;2023-02-14T06:00:47;101124.02;;;6.13;77.11
70488;BME280;57976;48.174;16.370;2023-02-14T06:02:51;101128.65;;;6.16;76.96
70488;BME280;57976;48.174;16.370;2023-02-14T06:04:56;101132.33;;;6.16;76.72
70488;BME280;57976;48.174;16.370;2023-02-14T06:07:03;101133.61;;;6.18;76.67
70488;BME280;57976;48.174;16.370;2023-02-14T06:09:06;101132.67;;;6.19;76.77
70488;BME280;57976;48.174;16.370;2023-02-14T06:11:08;101139.39;;;6.18;76.52
70488;BME280;57976;48.174;16.370;2023-02-14T06:13:11;101139.88;;;6.19;76.42
70488;BME280;57976;48.174;16.370;2023-02-14T06:15:14;101138.04;;;6.22;76.43
70488;BME280;57976;48.174;16.370;2023-02-14T06:17:17;101135.56;;;6.22;76.51
70488;BME280;57976;48.174;16.370;2023-02-14T06:19:20;101133.54;;;6.23;76.54
70488;BME280;57976;48.174;16.370;2023-02-14T06:21:23;101139.57;;;6.24;76.27
70488;BME280;57976;48.174;16.370;2023-02-14T06:23:26;101138.83;;;6.25;76.03
70488;BME280;57976;48.174;16.370;2023-02-14T06:25:28;101132.77;;;6.24;76.39
70488;BME280;57976;48.174;16.370;2023-02-14T06:27:32;101137.63;;;6.25;76.17
70488;BME280;57976;48.174;16.370;2023-02-14T06:29:34;101145.11;;;6.24;76.03
70488;BME280;57976;48.174;16.370;2023-02-14T06:31:37;101146.48;;;6.20;76.06
70488;BME280;57976;48.174;16.370;2023-02-14T06:33:40;101148.48;;;6.17;76.26
70488;BME280;57976;48.174;16.370;2023-02-14T06:35:43;101149.68;;;6.18;76.21
70488;BME280;57976;48.174;16.370;2023-02-14T06:37:46;101147.14;;;6.19;76.19
70488;BME280;57976;48.174;16.370;2023-02-14T06:39:49;101149.74;;;6.17;76.53
70488;BME280;57976;48.174;16.370;2023-02-14T06:41:52;101139.90;;;6.16;76.22
70488;BME280;57976;48.174;16.370;2023-02-14T06:43:57;101140.39;;;6.17;76.28
70488;BME280;57976;48.174;16.370;2023-02-14T06:46:01;101141.86;;;6.20;76.32
70488;BME280;57976;48.174;16.370;2023-02-14T06:48:04;101141.29;;;6.21;76.07
70488;BME280;57976;48.174;16.370;2023-02-14T06:50:09;101136.95;;;6.22;76.18
70488;BME280;57976;48.174;16.370;2023-02-14T06:52:11;101139.66;;;6.21;76.24
70488;BME280;57976;48.174;16.370;2023-02-14T06:54:14;101140.06;;;6.19;76.28
70488;BME280;57976;48.174;16.370;2023-02-14T06:56:17;101146.20;;;6.21;76.09
70488;BME280;57976;48.174;16.370;2023-02-14T06:58:20;101148.31;;;6.19;75.87
70488;BME280;57976;48.174;16.370;2023-02-14T07:00:24;101152.18;;;6.19;76.04
70488;BME280;57976;48.174;16.370;2023-02-14T07:02:27;101154.95;;;6.20;75.76
70488;BME280;57976;48.174;16.370;2023-02-14T07:04:30;101158.73;;;6.21;75.74
70488;BME280;57976;48.174;16.370;2023-02-14T07:06:33;101160.41;;;6.22;75.43
70488;BME280;57976;48.174;16.370;2023-02-14T07:08:36;101161.10;;;6.20;75.18
70488;BME280;57976;48.174;16.370;2023-02-14T07:10:39;101155.34;;;6.22;75.33
70488;BME280;57976;48.174;16.370;2023-02-14T07:12:41;101156.63;;;6.23;75.37
70488;BME280;57976;48.174;16.370;2023-02-14T07:14:44;101154.14;;;6.23;75.28
70488;BME280;57976;48.174;16.370;2023-02-14T07:16:47;101160.08;;;6.26;75.21
70488;BME280;57976;48.174;16.370;2023-02-14T07:18:50;101153.62;;;6.25;75.14
70488;BME280;57976;48.174;16.370;2023-02-14T07:20:53;101156.93;;;6.28;75.11
70488;BME280;57976;48.174;16.370;2023-02-14T07:22:59;101159.94;;;6.30;75.33
70488;BME280;57976;48.174;16.370;2023-02-14T07:25:04;101162.02;;;6.32;75.12
70488;BME280;57976;48.174;16.370;2023-02-14T07:27:08;101161.58;;;6.35;74.86
70488;BME280;57976;48.174;16.370;2023-02-14T07:29:11;101164.85;;;6.36;75.16
70488;BME280;57976;48.174;16.370;2023-02-14T07:31:14;101169.88;;;6.39;74.83
70488;BME280;57976;48.174;16.370;2023-02-14T07:33:17;101162.52;;;6.39;74.77
70488;BME280;57976;48.174;16.370;2023-02-14T07:35:20;101169.70;;;6.39;74.90
70488;BME280;57976;48.174;16.370;2023-02-14T07:37:23;101168.89;;;6.41;74.91
70488;BME280;57976;48.174;16.370;2023-02-14T07:39:26;101170.77;;;6.43;75.30
70488;BME280;57976;48.174;16.370;2023-02-14T07:41:29;101169.92;;;6.49;74.84
70488;BME280;57976;48.174;16.370;2023-02-14T07:43:32;101181.72;;;6.49;74.46
70488;BME280;57976;48.174;16.370;2023-02-14T07:45:35;101173.91;;;6.44;74.38
70488;BME280;57976;48.174;16.370;2023-02-14T07:47:39;101182.23;;;6.41;74.86
70488;BME280;57976;48.174;16.370;2023-02-14T07:49:42;101178.60;;;6.36;74.88
70488;BME280;57976;48.174;16.370;2023-02-14T07:51:44;101189.16;;;6.35;75.19
70488;BME280;57976;48.174;16.370;2023-02-14T07:53:48;101186.31;;;6.31;75.04
70488;BME280;57976;48.174;16.370;2023-02-14T07:55:51;101191.69;;;6.28;75.50
70488;BME280;57976;48.174;16.370;2023-02-14T07:57:53;101192.92;;;6.26;75.58
70488;BME280;57976;48.174;16.370;2023-02-14T07:59:56;101195.92;;;6.24;75.94
70488;BME280;57976;48.174;16.370;2023-02-14T08:01:59;101196.89;;;6.20;75.67
70488;BME280;57976;48.174;16.370;2023-02-14T08:04:02;101192.02;;;6.18;76.00
70488;BME280;57976;48.174;16.370;2023-02-14T08:06:07;101193.14;;;6.15;76.11
70488;BME280;57976;48.174;16.370;2023-02-14T08:08:09;101198.98;;;6.14;76.26
70488;BME280;57976;48.174;16.370;2023-02-14T08:10:12;101203.69;;;6.15;76.59
70488;BME280;57976;48.174;16.370;2023-02-14T08:12:18;101202.70;;;6.14;76.82
70488;BME280;57976;48.174;16.370;2023-02-14T08:14:22;101199.46;;;6.11;76.74
70488;BME280;57976;48.174;16.370;2023-02-14T08:16:25;101201.92;;;6.09;76.99
70488;BME280;57976;48.174;16.370;2023-02-14T08:18:27;101204.92;;;6.09;76.91
70488;BME280;57976;48.174;16.370;2023-02-14T08:20:30;101200.98;;;6.07;77.00
70488;BME280;57976;48.174;16.370;2023-02-14T08:22:33;101202.45;;;6.09;77.02
70488;BME280;57976;48.174;16.370;2023-02-14T08:24:36;101202.88;;;6.10;76.99
70488;BME280;57976;48.174;16.370;2023-02-14T08:26:41;101199.73;;;6.10;77.07
70488;BME280;57976;48.174;16.370;2023-02-14T08:28:44;101202.81;;;6.09;77.29
70488;BME280;57976;48.174;16.370;2023-02-14T08:30:47;101210.74;;;6.09;77.60
70488;BME280;57976;48.174;16.370;2023-02-14T08:32:50;101201.83;;;6.06;77.76
70488;BME280;57976;48.174;16.370;2023-02-14T08:34:53;101205.11;;;6.05;78.07
70488;BME280;57976;48.174;16.370;2023-02-14T08:36:57;101199.14;;;6.06;77.72
70488;BME280;57976;48.174;16.370;2023-02-14T08:38:59;101207.47;;;6.08;77.70
70488;BME280;57976;48.174;16.370;2023-02-14T08:41:03;101213.98;;;6.08;77.74
70488;BME280;57976;48.174;16.370;2023-02-14T08:43:11;101207.38;;;6.09;77.69
70488;BME280;57976;48.174;16.370;2023-02-14T08:45:14;101215.97;;;6.06;77.69
70488;BME280;57976;48.174;16.370;2023-02-14T08:47:16;101220.75;;;6.05;78.07
70488;BME280;57976;48.174;16.370;2023-02-14T08:49:19;101218.20;;;6.02;78.20
70488;BME280;57976;48.174;16.370;2023-02-14T08:51:22;101217.69;;;6.02;78.04
70488;BME280;57976;48.174;16.370;2023-02-14T08:53:25;101229.52;;;6.04;78.08
70488;BME280;57976;48.174;16.370;2023-02-14T08:55:27;101237.95;;;6.02;77.85
70488;BME280;57976;48.174;16.370;2023-02-14T08:57:30;101233.30;;;6.01;78.00
70488;BME280;57976;48.174;16.370;2023-02-14T08:59:33;101230.43;;;5.99;78.18
70488;BME280;57976;48.174;16.370;2023-02-14T09:01:36;101221.19;;;5.98;78.05
70488;BME280;57976;48.174;16.370;2023-02-14T09:03:38;101218.71;;;5.98;78.21
70488;BME280;57976;48.174;16.370;2023-02-14T09:05:42;101216.33;;;5.99;78.15
70488;BME280;57976;48.174;16.370;2023-02-14T09:07:45;101223.36;;;6.02;78.01
70488;BME280;57976;48.174;16.370;2023-02-14T09:09:48;101225.96;;;6.06;78.06
70488;BME280;57976;48.174;16.370;2023-02-14T09:11:51;101229.98;;;6.13;77.74
70488;BME280;57976;48.174;16.370;2023-02-14T09:13:54;101232.27;;;6.17;77.36
70488;BME280;57976;48.174;16.370;2023-02-14T09:15:57;101228.44;;;6.21;76.78
70488;BME280;57976;48.174;16.370;2023-02-14T09:18:00;101230.61;;;6.22;76.37
70488;BME280;57976;48.174;16.370;2023-02-14T09:20:07;101227.49;;;6.23;76.24
70488;BME280;57976;48.174;16.370;2023-02-14T09:22:11;101228.55;;;6.28;75.83
70488;BME280;57976;48.174;16.370;2023-02-14T09:24:13;101230.00;;;6.32;75.71
70488;BME280;57976;48.174;16.370;2023-02-14T09:26:16;101235.16;;;6.37;75.51
70488;BME280;57976;48.174;16.370;2023-02-14T09:28:19;101233.89;;;6.40;75.30
70488;BME280;57976;48.174;16.370;2023-02-14T09:30:22;101236.21;;;6.42;74.70
70488;BME280;57976;48.174;16.370;2023-02-14T09:32:26;101243.69;;;6.43;74.41
70488;BME280;57976;48.174;16.370;2023-02-14T09:34:29;101237.66;;;6.45;74.09
70488;BME280;57976;48.174;16.370;2023-02-14T09:36:34;101235.25;;;6.47;74.07
70488;BME280;57976;48.174;16.370;2023-02-14T09:38:37;101231.72;;;6.51;74.00
70488;BME280;57976;48.174;16.370;2023-02-14T09:40:40;101236.47;;;6.53;73.36
70488;BME280;57976;48.174;16.370;2023-02-14T09:42:53;101236.95;;;6.56;73.44
70488;BME280;57976;48.174;16.370;2023-02-14T09:44:59;101229.84;;;6.56;73.22
70488;BME280;57976;48.174;16.370;2023-02-14T09:47:06;101227.98;;;6.58;73.23
70488;BME280;57976;48.174;16.370;2023-02-14T09:49:14;101226.10;;;6.61;73.10
70488;BME280;57976;48.174;16.370;2023-02-14T09:51:20;101229.91;;;6.64;72.76
70488;BME280;57976;48.174;16.370;2023-02-14T09:53:25;101233.91;;;6.66;73.26
70488;BME280;57976;48.174;16.370;2023-02-14T09:55:34;101235.44;;;6.69;72.58
70488;BME280;57976;48.174;16.370;2023-02-14T09:57:44;101230.43;;;6.70;72.27
70488;BME280;57976;48.174;16.370;2023-02-14T09:59:54;101233.95;;;6.71;72.56
70488;BME280;57976;48.174;16.370;2023-02-14T10:02:08;101229.77;;;6.72;72.12
70488;BME280;57976;48.174;16.370;2023-02-14T10:04:21;101231.73;;;6.65;72.29
70488;BME280;57976;48.174;16.370;2023-02-14T10:06:38;101231.15;;;6.62;72.41
70488;BME280;57976;48.174;16.370;2023-02-14T10:08:57;101234.58;;;6.57;72.60
70488;BME280;57976;48.174;16.370;2023-02-14T10:11:07;101236.27;;;6.53;72.38
70488;BME280;57976;48.174;16.370;2023-02-14T10:13:14;101228.66;;;6.54;72.53
70488;BME280;57976;48.174;16.370;2023-02-14T10:15:24;101234.88;;;6.53;72.71
70488;BME280;57976;48.174;16.370;2023-02-14T10:17:35;101223.98;;;6.57;72.54
70488;BME280;57976;48.174;16.370;2023-02-14T10:19:43;101232.16;;;6.60;72.42
70488;BME280;57976;48.174;16.370;2023-02-14T10:21:50;101228.73;;;6.63;72.23
70488;BME280;57976;48.174;16.370;2023-02-14T10:23:59;101232.80;;;6.65;72.49
70488;BME280;57976;48.174;16.370;2023-02-14T10:26:05;101226.27;;;6.67;72.42
70488;BME280;57976;48.174;16.370;2023-02-14T10:28:12;101224.75;;;6.64;72.35
70488;BME280;57976;48.174;16.370;2023-02-14T10:30:18;101232.36;;;6.62;72.25
70488;BME280;57976;48.174;16.370;2023-02-14T10:32:24;101224.92;;;6.60;72.46
70488;BME280;57976;48.174;16.370;2023-02-14T10:34:33;101227.23;;;6.60;72.74
70488;BME280;57976;48.174;16.370;2023-02-14T10:36:47;101230.88;;;6.63;72.53
70488;BME280;57976;48.174;16.370;2023-02-14T10:38:58;101227.20;;;6.62;72.33
70488;BME280;57976;48.174;16.370;2023-02-14T10:41:28;101225.83;;;6.64;72.46
70488;BME280;57976;48.174;16.370;2023-02-14T10:43:38;101229.13;;;6.67;72.33
70488;BME280;57976;48.174;16.370;2023-02-14T10:45:48;101223.43;;;6.65;72.43
70488;BME280;57976;48.174;16.370;2023-02-14T10:47:59;101222.02;;;6.69;72.67
70488;BME280;57976;48.174;16.370;2023-02-14T10:50:17;101218.49;;;6.78;72.61
70488;BME280;57976;48.174;16.370;2023-02-14T10:52:26;101208.21;;;6.85;72.23
70488;BME280;57976;48.174;16.370;2023-02-14T10:54:35;101209.39;;;6.90;71.76
70488;BME280;57976;48.174;16.370;2023-02-14T10:56:42;101212.21;;;6.93;71.34
70488;BME280;57976;48.174;16.370;2023-02-14T10:58:48;101211.83;;;6.96;70.91